Skip Navigation Links
NOAA logo - Click to go to the NOAA homepage
NOAA's National Weather Service
Alaska Aviation Weather Unit
  NWS logo - Click to go to the NWS homepage
Left Navbar Graphic     22 AKDT = 06 GMT

   
NOAA is celebrating 200 years of science, service, and stewardship. Visit the NOAA 200th celebration Web site to learn more.
USA.gov is the U.S. Government's official Web portal to all Federal, state and local government Web resources and services.
Facebook
NWS on Facebook

Important Change Regarding the AAWU Web Presence

 

Over the last several months, the AAWU has been working to navigate its webpages to a nationally supported server. Security, as well as other needs, have necessitated the change.  We have been given an extension for the site changeover while we diligently work at addressing feedback received. As of July 14, 2017, aawu.arh.noaa.gov will be discontinued. The new AAWU web address is weather.gov/aawu. It is now live and will run in-parallel with the old site until it is discontinued on July 14, 2017. Please continue to send any feedback or questions regarding the new webpages to nws.ar.aawu.webauthors@noaa.gov.  Thank you for your patience during this time of transition.
AAWU Home :: Display TAF Add Bookmark
TAF PAPG 260545Z 2606/2706 VRB04KT 5SM -RA SCT005 OVC010
      TEMPO 2606/2609 1SM -RA BR OVC003
     FM260900 00000KT 4SM -RA BR SCT003 OVC007
     FM261800 VRB03KT 6SM -RA SCT010 OVC012
     FM270300 00000KT 4SM -RA BR OVC025
      AMD NOT SKED=

METAR PAPG 260056Z 10004KT 7SM VCSH SCT026 OVC040 15/11 A3001= METAR PAPG 260156Z 00000KT 10SM VCSH OVC043 13/12 A3000= METAR PAPG 260256Z 00000KT 5SM -RA BR SCT029 OVC037 12/11 A2999= SPECI PAPG 260310Z 11003KT 4SM -RA BR FEW023 BKN029 OVC037 12/11 RMK AO2 P0001 $= SPECI PAPG 260322Z 00000KT 2 1/2SM -RA BR FEW023 OVC035 12/11 RMK AO2 P0002 $= SPECI PAPG 260336Z 00000KT 3SM -RA BR SCT031 OVC039 12/11 RMK AO2 P0002 $= SPECI PAPG 260346Z 00000KT 7SM -RA BR BKN026 BKN035 OVC042 12/11 RMK AO2 P0003 $= METAR PAPG 260356Z COR 09003KT 4SM -RA BR SCT009 OVC026 12/11 A2998= SPECI PAPG 260410Z 00000KT 6SM BR BKN007 OVC026 12/11 RMK AO2 RAE08 P0000 $= SPECI PAPG 260452Z 09004KT 1 3/4SM -RA BR OVC007 11/11 A2997 RMK AO2 P0003 $= METAR PAPG 260456Z 08004KT 2SM -RA BR OVC007 11/11 A2997= PAPG 260509Z 08004KT 2 1/2SM RA BR BKN005 11/11 RMK AO2 CIG 003V007 P0002 $= SPECI PAPG 260520Z 10003KT 1 1/4SM RA BR BKN003 11/11 RMK AO2 VIS 3/4V2 CIG 003V007 P0004 $= SPECI PAPG 260530Z 11003KT 1SM -RA BR BKN003 11/11 RMK AO2 P0006 $= SPECI PAPG 260537Z 12003KT 2SM -RA BR OVC003 11/11 RMK AO2 VIS 1 1/4V3 P0006 $= SPECI PAPG 260548Z 00000KT 3SM -RA BR OVC003 11/11 RMK AO2 P0007 $= METAR PAPG 260556Z 00000KT 3SM -RA BR OVC003 11/11 A2996 RMK AO2 SLP151 P0007 60015 T01060106 10150 20106 57010 $= PAPG 260629Z AUTO 00000KT 1 3/4SM BR OVC003 11/11 RMK AO2 RAE10 P0001 TSNO $=
 Alaska TAF Map

NOAA's National Weather Service
Alaska Aviation Weather Unit
6930 Sand Lake Road
Anchorage, AK 99502-1845
Disclaimer
Credits
Glossary
Privacy Policy
About Us
Career Opportunities
Contact AAWU Internet Services Site last modified: April, 17th 2012